createdAt,value
2023-01-11T00:02:34.577Z,8.38
2023-01-11T00:07:33.164Z,5.88
2023-01-11T00:12:31.345Z,6.07
2023-01-11T00:17:30.015Z,7.93
2023-01-11T00:22:29.622Z,4.72
2023-01-11T00:27:28.194Z,6.78
2023-01-11T00:32:27.467Z,4.53
2023-01-11T00:37:25.611Z,5.22
2023-01-11T00:42:42.620Z,8.13
2023-01-11T00:48:00.374Z,10.38
2023-01-11T00:52:58.821Z,6.05
2023-01-11T00:57:58.704Z,4.50
2023-01-11T01:02:57.468Z,4.40
2023-01-11T01:07:55.689Z,4.60
2023-01-11T01:13:11.032Z,4.35
2023-01-11T01:18:10.688Z,3.95
2023-01-11T01:23:08.858Z,4.85
2023-01-11T01:28:07.000Z,3.58
2023-01-11T01:33:05.251Z,3.80
2023-01-11T01:38:04.771Z,4.00
2023-01-11T01:43:02.924Z,5.20
2023-01-11T01:48:01.937Z,4.22
2023-01-11T01:53:02.372Z,4.93
2023-01-11T01:58:03.476Z,3.88
2023-01-11T02:03:02.456Z,5.07
2023-01-11T02:08:01.829Z,8.38
2023-01-11T02:13:02.804Z,6.13
2023-01-11T02:18:01.019Z,13.40
2023-01-11T02:23:17.291Z,5.22
2023-01-11T02:28:19.182Z,6.93
2023-01-11T02:33:23.799Z,5.25
2023-01-11T02:38:26.621Z,5.50
2023-01-11T02:43:45.550Z,6.70
2023-01-11T02:48:46.052Z,4.18
2023-01-11T02:53:47.446Z,4.90
2023-01-11T02:58:47.961Z,6.15
2023-01-11T03:03:46.130Z,5.53
2023-01-11T03:08:52.054Z,6.10
2023-01-11T03:13:56.333Z,6.50
2023-01-11T03:18:56.919Z,11.13
2023-01-11T03:23:59.562Z,18.13
2023-01-11T03:29:06.142Z,8.45
2023-01-11T03:34:07.295Z,12.45
2023-01-11T03:39:09.970Z,5.72
2023-01-11T03:44:10.469Z,4.85
2023-01-11T03:49:09.655Z,8.20
2023-01-11T03:54:09.506Z,6.55
2023-01-11T03:59:09.094Z,6.60
2023-01-11T04:04:07.401Z,9.80
2023-01-11T04:09:06.087Z,7.07
2023-01-11T04:14:04.297Z,6.65
2023-01-11T04:19:03.985Z,6.47
2023-01-11T04:24:02.218Z,5.60
2023-01-11T04:29:00.547Z,7.00
2023-01-11T04:33:58.916Z,6.30
2023-01-11T04:38:58.514Z,7.63
2023-01-11T04:43:57.226Z,6.15
2023-01-11T04:48:56.462Z,23.98
2023-01-11T04:53:54.734Z,12.70
2023-01-11T04:58:55.045Z,18.55
2023-01-11T05:03:53.186Z,13.68
2023-01-11T05:08:51.504Z,5.75
2023-01-11T05:13:49.673Z,9.15
2023-01-11T05:18:50.591Z,14.32
2023-01-11T05:23:49.209Z,17.65
2023-01-11T05:28:47.560Z,11.73
2023-01-11T05:33:45.991Z,11.32
2023-01-11T05:38:46.375Z,9.32
2023-01-11T05:43:59.091Z,9.43
2023-01-11T05:48:57.260Z,9.98
2023-01-11T05:53:57.050Z,8.65
2023-01-11T05:58:55.327Z,8.35
2023-01-11T06:03:53.796Z,7.30
2023-01-11T06:08:51.996Z,82.15
2023-01-11T06:13:51.530Z,35.67
2023-01-11T06:18:50.580Z,17.58
2023-01-11T06:23:50.848Z,18.88
2023-01-11T06:28:49.564Z,13.25
2023-01-11T06:33:49.122Z,29.85
2023-01-11T06:38:47.436Z,15.75
2023-01-11T06:43:46.578Z,18.85
2023-01-11T06:48:44.966Z,14.88
2023-01-11T06:53:44.816Z,18.52
2023-01-11T06:58:45.592Z,13.95
2023-01-11T07:03:45.567Z,15.65
2023-01-11T07:08:45.114Z,22.38
2023-01-11T07:13:43.317Z,29.25
2023-01-11T07:18:41.462Z,19.42
2023-01-11T07:23:39.675Z,17.88
2023-01-11T07:28:39.209Z,15.13
2023-01-11T07:33:37.454Z,12.32
2023-01-11T07:38:35.761Z,14.00
2023-01-11T07:43:33.954Z,19.33
2023-01-11T07:48:33.484Z,19.40
2023-01-11T07:53:31.664Z,18.67
2023-01-11T07:58:29.832Z,21.02
2023-01-11T08:03:28.175Z,14.18
2023-01-11T08:08:27.807Z,20.95
2023-01-11T08:13:54.956Z,8.57
2023-01-11T08:18:53.209Z,18.48
2023-01-11T08:23:53.673Z,9.18
2023-01-11T08:28:51.918Z,20.63
2023-01-11T08:33:50.470Z,21.63
2023-01-11T08:38:48.637Z,9.80
2023-01-11T08:43:49.855Z,12.95
2023-01-11T08:48:48.248Z,16.15
2023-01-11T08:53:46.468Z,16.38
2023-01-11T08:58:44.629Z,17.65
2023-01-11T09:03:44.209Z,18.60
2023-01-11T09:08:42.789Z,34.63
2023-01-11T09:13:40.964Z,16.02
2023-01-11T09:18:39.149Z,17.13
2023-01-11T09:23:38.867Z,24.90
2023-01-11T09:28:37.028Z,19.83
2023-01-11T09:33:35.474Z,19.75
2023-01-11T09:38:34.141Z,20.52
2023-01-11T09:43:38.743Z,13.18
2023-01-11T09:48:39.150Z,11.95
2023-01-11T09:53:38.562Z,13.60
2023-01-11T09:58:50.839Z,15.10
2023-01-11T10:03:58.456Z,16.60
2023-01-11T10:18:30.325Z,11.88
2023-01-11T10:19:57.669Z,23.13
2023-01-11T10:24:57.503Z,36.15
2023-01-11T10:30:12.865Z,34.15
2023-01-11T10:35:41.279Z,35.00
2023-01-11T10:41:01.703Z,40.03
2023-01-11T10:46:03.157Z,38.30
2023-01-11T10:51:03.769Z,26.73
2023-01-11T10:56:05.031Z,21.48
2023-01-11T11:01:12.508Z,50.20
2023-01-11T11:06:14.035Z,73.15
2023-01-11T11:11:14.746Z,18.30
2023-01-11T11:16:20.527Z,25.55
2023-01-11T11:21:22.318Z,20.05
2023-01-11T11:26:21.267Z,23.27
2023-01-11T11:31:20.993Z,27.85
2023-01-11T11:36:19.304Z,32.92
2023-01-11T11:41:18.308Z,33.03
2023-01-11T11:46:27.286Z,26.55
2023-01-11T11:51:27.042Z,56.15
2023-01-11T11:56:26.477Z,43.50
2023-01-11T12:01:28.681Z,47.33
2023-01-11T12:06:28.731Z,36.47
2023-01-11T12:11:30.173Z,38.35
2023-01-11T12:16:33.211Z,40.08
2023-01-11T12:21:31.428Z,30.02
2023-01-11T12:26:32.586Z,43.15
2023-01-11T12:31:37.889Z,38.10
2023-01-11T12:36:39.188Z,35.42
2023-01-11T12:41:50.361Z,52.10
2023-01-11T12:46:55.325Z,38.78
2023-01-11T12:52:01.596Z,36.10
2023-01-11T12:57:14.526Z,30.15
2023-01-11T13:02:22.162Z,25.30
2023-01-11T13:07:28.601Z,9.65
2023-01-11T13:12:29.550Z,6.72
2023-01-11T13:17:32.769Z,21.48
2023-01-11T13:22:34.317Z,15.25
2023-01-11T13:27:32.889Z,18.15
2023-01-11T13:32:36.454Z,8.65
2023-01-11T13:37:36.358Z,8.40
2023-01-11T13:42:36.598Z,24.35
2023-01-11T13:47:38.148Z,14.02
2023-01-11T13:52:43.536Z,8.10
2023-01-11T13:57:45.215Z,22.33
2023-01-11T14:02:47.574Z,16.25
2023-01-11T14:07:52.145Z,22.00
2023-01-11T14:13:07.861Z,12.95
2023-01-11T14:18:26.794Z,12.50
2023-01-11T14:23:31.135Z,9.05
2023-01-11T14:28:40.279Z,27.00
2023-01-11T14:33:59.078Z,14.23
2023-01-11T14:39:21.175Z,21.63
2023-01-11T14:44:27.982Z,60.78
2023-01-11T14:49:34.298Z,25.05
2023-01-11T14:54:33.974Z,14.02
2023-01-11T14:59:40.931Z,15.10
2023-01-11T15:04:40.061Z,16.15
2023-01-11T15:09:45.215Z,15.52
2023-01-11T15:19:43.277Z,21.33
2023-01-11T15:24:43.863Z,36.13
2023-01-11T15:29:45.363Z,49.05
2023-01-11T15:34:45.895Z,46.50
2023-01-11T15:39:47.149Z,33.10
2023-01-11T15:44:53.613Z,26.85
2023-01-11T15:50:09.803Z,38.15
2023-01-11T15:55:23.844Z,45.03
2023-01-11T16:00:33.163Z,44.85
2023-01-11T16:05:33.414Z,27.33
2023-01-11T16:10:46.390Z,22.02
2023-01-11T16:15:49.944Z,31.67
2023-01-11T16:20:56.963Z,20.63
2023-01-11T16:25:57.344Z,15.07
2023-01-11T16:31:01.753Z,13.52
2023-01-11T16:36:11.518Z,22.47
2023-01-11T16:41:13.147Z,18.73
2023-01-11T16:46:23.597Z,25.48
2023-01-11T16:51:21.876Z,22.02
2023-01-11T16:56:22.157Z,16.10
2023-01-11T17:01:22.481Z,18.25
2023-01-11T17:06:21.540Z,34.15
2023-01-11T17:11:32.331Z,14.60
2023-01-11T17:16:33.662Z,24.90
2023-01-11T17:21:32.032Z,25.33
2023-01-11T17:26:35.099Z,16.77
2023-01-11T17:31:36.922Z,19.83
2023-01-11T17:36:35.838Z,20.38
2023-01-11T17:41:52.172Z,18.65
2023-01-11T17:46:51.808Z,15.93
2023-01-11T17:51:50.317Z,20.45
2023-01-11T17:56:55.710Z,19.80
2023-01-11T18:01:57.676Z,16.35
2023-01-11T18:06:57.258Z,22.75
2023-01-11T18:12:05.192Z,22.85
2023-01-11T18:17:07.068Z,18.77
2023-01-11T18:22:05.586Z,24.20
2023-01-11T18:27:08.508Z,19.50
2023-01-11T18:32:09.935Z,18.77
2023-01-11T18:37:08.404Z,24.58
2023-01-11T18:42:09.690Z,45.55
2023-01-11T18:47:14.889Z,63.38
2023-01-11T18:52:13.493Z,53.70
2023-01-11T18:57:11.810Z,35.20
2023-01-11T19:02:18.309Z,35.35
2023-01-11T19:07:16.897Z,34.42
2023-01-11T19:12:15.589Z,46.50
2023-01-11T19:17:15.387Z,40.10
2023-01-11T19:22:13.769Z,62.72
2023-01-11T19:27:13.603Z,45.45
2023-01-11T19:32:11.978Z,36.17
2023-01-11T19:37:11.511Z,24.75
2023-01-11T19:42:09.690Z,53.75
2023-01-11T19:47:12.900Z,59.42
2023-01-11T19:52:14.462Z,32.67
2023-01-11T19:57:14.332Z,30.83
2023-01-11T20:02:13.653Z,19.92
2023-01-11T20:07:14.443Z,25.10
2023-01-11T20:12:15.651Z,22.08
2023-01-11T20:17:14.136Z,21.73
2023-01-11T20:22:13.714Z,30.10
2023-01-11T20:27:11.927Z,45.30
2023-01-11T20:32:31.083Z,13.48
2023-01-11T20:37:30.469Z,10.18
2023-01-11T20:42:28.984Z,16.50
2023-01-11T20:47:27.255Z,13.23
2023-01-11T20:52:25.957Z,12.10
2023-01-11T20:57:29.308Z,14.98
2023-01-11T21:02:27.877Z,10.57
2023-01-11T21:07:26.302Z,14.38
2023-01-11T21:12:26.075Z,13.90
2023-01-11T21:17:24.418Z,20.08
2023-01-11T21:22:22.796Z,14.75
2023-01-11T21:27:21.025Z,9.32
2023-01-11T21:32:20.687Z,21.20
2023-01-11T21:37:21.013Z,13.80
2023-01-11T21:42:19.194Z,12.25
2023-01-11T21:47:18.238Z,11.82
2023-01-11T21:52:17.797Z,11.05
2023-01-11T21:57:15.944Z,10.77
2023-01-11T22:02:14.118Z,11.18
2023-01-11T22:07:12.290Z,7.88
2023-01-11T22:12:12.018Z,13.15
2023-01-11T22:17:10.225Z,15.88
2023-01-11T22:22:08.497Z,12.30
2023-01-11T22:27:09.779Z,11.27
2023-01-11T22:32:09.380Z,8.90
2023-01-11T22:37:07.923Z,9.05
2023-01-11T22:42:06.287Z,6.53
2023-01-11T22:47:04.520Z,7.05
2023-01-11T22:52:04.064Z,6.85
2023-01-11T22:57:02.250Z,7.90
2023-01-11T23:02:00.471Z,8.00
2023-01-11T23:06:58.623Z,6.30
2023-01-11T23:12:15.917Z,5.85
2023-01-11T23:17:14.136Z,7.40
2023-01-11T23:22:12.341Z,6.50
2023-01-11T23:27:11.951Z,5.47
2023-01-11T23:32:10.160Z,9.80
2023-01-11T23:37:08.926Z,6.82
2023-01-11T23:42:24.837Z,7.07
2023-01-11T23:47:25.414Z,7.43
2023-01-11T23:52:24.704Z,6.47
2023-01-11T23:57:23.509Z,6.55
